Time,TemperatureF,DewpointF,PressureIn,WindDirection,WindDirectionDegrees,WindSpeedMPH,WindSpeedGustMPH,Humidity,HourlyPrecipIn,Conditions,Clouds,dailyrainin,SolarRadiationWatts/m^2,SoftwareType,DateUTC
2013-05-15 00:01:00,54.0,45.0,-100.00,ENE,73,2.0,5.0,71,0.00,,,0.00,0.000000,,2013-05-15 07:01:00,
2013-05-15 00:22:00,51.0,44.0,-100.00,East,94,1.0,3.0,78,0.00,,,0.00,0.000000,,2013-05-15 07:22:00,
2013-05-15 00:32:00,51.0,44.0,-100.00,East,94,1.0,3.0,78,0.00,,,0.00,0.000000,,2013-05-15 07:32:00,
2013-05-15 00:42:00,51.0,44.0,-100.00,East,94,1.0,3.0,78,0.00,,,0.00,0.000000,,2013-05-15 07:42:00,
2013-05-15 00:52:00,51.0,44.0,-100.00,East,94,1.0,3.0,78,0.00,,,0.00,0.000000,,2013-05-15 07:52:00,
2013-05-15 01:02:00,51.0,44.0,-100.00,East,94,1.0,3.0,78,0.00,,,0.00,0.000000,,2013-05-15 08:02:00,
2013-05-15 01:21:00,48.0,43.0,-100.00,ENE,66,0.0,3.0,83,0.00,,,0.00,0.000000,,2013-05-15 08:21:00,
2013-05-15 01:32:00,48.0,43.0,-100.00,ENE,66,0.0,3.0,83,0.00,,,0.00,0.000000,,2013-05-15 08:32:00,
2013-05-15 01:42:00,48.0,43.0,-100.00,ENE,66,0.0,3.0,83,0.00,,,0.00,0.000000,,2013-05-15 08:42:00,
2013-05-15 01:53:00,48.0,43.0,-100.00,ENE,66,0.0,3.0,83,0.00,,,0.00,0.000000,,2013-05-15 08:53:00,
2013-05-15 02:01:00,48.0,43.0,-100.00,ENE,66,0.0,3.0,83,0.00,,,0.00,0.000000,,2013-05-15 09:01:00,
2013-05-15 02:22:00,47.0,43.0,-100.00,SE,129,0.0,2.0,86,0.00,,,0.00,0.000000,,2013-05-15 09:22:00,
2013-05-15 02:33:00,47.0,43.0,-100.00,SE,129,0.0,2.0,86,0.00,,,0.00,0.000000,,2013-05-15 09:33:00,
2013-05-15 02:42:00,47.0,43.0,-100.00,SE,129,0.0,2.0,86,0.00,,,0.00,0.000000,,2013-05-15 09:42:00,
2013-05-15 02:53:00,47.0,43.0,-100.00,SE,129,0.0,2.0,86,0.00,,,0.00,0.000000,,2013-05-15 09:53:00,
2013-05-15 03:02:00,47.0,43.0,-100.00,SE,129,0.0,2.0,86,0.00,,,0.00,0.000000,,2013-05-15 10:02:00,
2013-05-15 03:04:00,45.0,42.0,-100.00,ESE,107,0.0,0.0,89,0.00,,,0.00,0.000000,,2013-05-15 10:04:00,
2013-05-15 03:32:00,45.0,42.0,-100.00,ESE,107,0.0,0.0,89,0.00,,,0.00,0.000000,,2013-05-15 10:32:00,
2013-05-15 03:42:00,45.0,42.0,-100.00,ESE,107,0.0,0.0,89,0.00,,,0.00,0.000000,,2013-05-15 10:42:00,
2013-05-15 03:52:00,45.0,42.0,-100.00,ESE,107,0.0,0.0,89,0.00,,,0.00,0.000000,,2013-05-15 10:52:00,
2013-05-15 04:28:00,44.0,42.0,-100.00,SSE,155,0.0,0.0,91,0.00,,,0.00,0.000000,,2013-05-15 11:28:00,
2013-05-15 04:38:00,44.0,42.0,-100.00,SSE,155,0.0,0.0,91,0.00,,,0.00,0.000000,,2013-05-15 11:38:00,
2013-05-15 04:57:00,44.0,42.0,-100.00,SSE,155,0.0,0.0,91,0.00,,,0.00,0.000000,,2013-05-15 11:57:00,
2013-05-15 05:03:00,44.0,42.0,-100.00,SSE,155,0.0,0.0,91,0.00,,,0.00,0.000000,,2013-05-15 12:03:00,
2013-05-15 05:29:00,43.0,41.0,-100.00,ENE,72,0.0,0.0,92,0.00,,,0.00,0.000000,,2013-05-15 12:29:00,
2013-05-15 05:37:00,43.0,41.0,-100.00,ENE,72,0.0,0.0,92,0.00,,,0.00,0.000000,,2013-05-15 12:37:00,
2013-05-15 05:56:00,43.0,41.0,-100.00,ENE,72,0.0,0.0,92,0.00,,,0.00,0.000000,,2013-05-15 12:56:00,
2013-05-15 06:02:00,43.0,41.0,-100.00,ENE,72,0.0,0.0,92,0.00,,,0.00,0.000000,,2013-05-15 13:02:00,
2013-05-15 07:28:00,43.0,41.0,-100.00,ENE,67,0.0,3.0,92,-99.99,,,0.00,18.000000,,2013-05-15 14:28:00,
2013-05-15 07:39:00,43.0,41.0,-100.00,ENE,67,0.0,3.0,92,-99.99,,,0.00,18.000000,,2013-05-15 14:39:00,
2013-05-15 07:49:00,43.0,41.0,-100.00,ENE,67,0.0,3.0,92,-99.99,,,0.00,18.000000,,2013-05-15 14:49:00,
2013-05-15 07:55:00,43.0,41.0,-100.00,ENE,67,0.0,3.0,92,-99.99,,,0.00,18.000000,,2013-05-15 14:55:00,
2013-05-15 08:03:00,43.0,41.0,-100.00,ENE,67,0.0,3.0,92,-99.99,,,0.00,18.000000,,2013-05-15 15:03:00,
2013-05-15 08:04:00,53.0,43.0,-100.00,NE,52,2.0,4.0,69,-99.99,,,0.00,236.000000,,2013-05-15 15:04:00,
2013-05-15 08:48:00,53.0,43.0,-100.00,NE,52,2.0,4.0,69,-99.99,,,0.00,236.000000,,2013-05-15 15:48:00,
2013-05-15 08:57:00,53.0,43.0,-100.00,NE,52,2.0,4.0,69,-99.99,,,0.00,236.000000,,2013-05-15 15:57:00,
2013-05-15 09:39:00,60.0,44.0,-100.00,NE,48,3.0,4.0,55,0.00,,,0.00,448.000000,,2013-05-15 16:39:00,
2013-05-15 09:56:00,60.0,44.0,-100.00,NE,48,3.0,4.0,55,0.00,,,0.00,448.000000,,2013-05-15 16:56:00,
2013-05-15 11:28:00,72.0,39.0,-100.00,East,101,7.0,10.0,30,-99.99,,,0.00,812.000000,,2013-05-15 18:28:00,
2013-05-15 11:38:00,72.0,39.0,-100.00,East,101,7.0,10.0,30,-99.99,,,0.00,812.000000,,2013-05-15 18:38:00,
2013-05-15 11:47:00,72.0,39.0,-100.00,East,101,7.0,10.0,30,-99.99,,,0.00,812.000000,,2013-05-15 18:47:00,
2013-05-15 11:55:00,72.0,39.0,-100.00,East,101,7.0,10.0,30,-99.99,,,0.00,812.000000,,2013-05-15 18:55:00,
2013-05-15 12:03:00,72.0,39.0,-100.00,East,101,7.0,10.0,30,-99.99,,,0.00,812.000000,,2013-05-15 19:03:00,
2013-05-15 12:39:00,78.0,36.0,-100.00,East,90,8.0,15.0,22,-99.99,,,0.00,929.000000,,2013-05-15 19:39:00,
2013-05-15 12:47:00,78.0,36.0,-100.00,East,90,8.0,15.0,22,-99.99,,,0.00,929.000000,,2013-05-15 19:47:00,
2013-05-15 12:56:00,78.0,36.0,-100.00,East,90,8.0,15.0,22,-99.99,,,0.00,929.000000,,2013-05-15 19:56:00,
2013-05-15 13:02:00,78.0,36.0,-100.00,East,90,8.0,15.0,22,-99.99,,,0.00,929.000000,,2013-05-15 20:02:00,
2013-05-15 13:40:00,81.0,33.0,-100.00,East,88,8.0,17.0,18,-99.99,,,0.00,989.000000,,2013-05-15 20:40:00,
2013-05-15 13:47:00,81.0,33.0,-100.00,East,88,8.0,17.0,18,-99.99,,,0.00,989.000000,,2013-05-15 20:47:00,
2013-05-15 13:54:00,81.0,33.0,-100.00,East,88,8.0,17.0,18,-99.99,,,0.00,989.000000,,2013-05-15 20:54:00,
2013-05-15 14:03:00,81.0,33.0,-100.00,East,88,8.0,17.0,18,-99.99,,,0.00,989.000000,,2013-05-15 21:03:00,
2013-05-15 14:04:00,82.0,31.0,-100.00,NE,52,7.0,14.0,16,-99.99,,,0.00,993.000000,,2013-05-15 21:04:00,
2013-05-15 14:41:00,82.0,31.0,-100.00,NE,52,7.0,14.0,16,-99.99,,,0.00,993.000000,,2013-05-15 21:41:00,
2013-05-15 14:51:00,82.0,31.0,-100.00,NE,52,7.0,14.0,16,-99.99,,,0.00,993.000000,,2013-05-15 21:51:00,
2013-05-15 14:58:00,82.0,31.0,-100.00,NE,52,7.0,14.0,16,-99.99,,,0.00,993.000000,,2013-05-15 21:58:00,
2013-05-15 15:04:00,82.0,37.0,-100.00,ENE,70,7.0,17.0,20,-99.99,,,0.00,919.000000,,2013-05-15 22:04:00,
2013-05-15 15:41:00,82.0,37.0,-100.00,ENE,70,7.0,17.0,20,-99.99,,,0.00,919.000000,,2013-05-15 22:41:00,
2013-05-15 15:51:00,82.0,37.0,-100.00,ENE,70,7.0,17.0,20,-99.99,,,0.00,919.000000,,2013-05-15 22:51:00,
2013-05-15 16:30:00,79.0,32.0,-100.00,ENE,74,8.0,18.0,18,-99.99,,,0.00,785.000000,,2013-05-15 23:30:00,
2013-05-15 16:39:00,79.0,32.0,-100.00,ENE,74,8.0,18.0,18,-99.99,,,0.00,785.000000,,2013-05-15 23:39:00,
2013-05-15 16:50:00,79.0,32.0,-100.00,ENE,74,8.0,18.0,18,-99.99,,,0.00,785.000000,,2013-05-15 23:50:00,
2013-05-15 16:57:00,79.0,32.0,-100.00,ENE,74,8.0,18.0,18,-99.99,,,0.00,785.000000,,2013-05-15 23:57:00,
2013-05-15 18:39:00,76.0,39.0,-100.00,East,90,6.0,16.0,26,-99.99,,,0.00,444.000000,,2013-05-16 01:39:00,
2013-05-15 18:49:00,76.0,39.0,-100.00,East,90,6.0,16.0,26,-99.99,,,0.00,444.000000,,2013-05-16 01:49:00,
2013-05-15 19:03:00,76.0,39.0,-100.00,East,90,6.0,16.0,26,-99.99,,,0.00,444.000000,,2013-05-16 02:03:00,
2013-05-15 19:39:00,68.0,42.0,-100.00,East,95,9.0,15.0,39,-99.99,,,0.00,178.000000,,2013-05-16 02:39:00,
2013-05-15 19:47:00,68.0,42.0,-100.00,East,95,9.0,15.0,39,-99.99,,,0.00,178.000000,,2013-05-16 02:47:00,
2013-05-15 19:54:00,68.0,42.0,-100.00,East,95,9.0,15.0,39,-99.99,,,0.00,178.000000,,2013-05-16 02:54:00,
2013-05-15 20:02:00,68.0,42.0,-100.00,East,95,9.0,15.0,39,-99.99,,,0.00,178.000000,,2013-05-16 03:02:00,
2013-05-15 20:40:00,61.0,41.0,-100.00,SE,135,2.0,15.0,48,-99.99,,,0.00,26.000000,,2013-05-16 03:40:00,
2013-05-15 20:46:00,61.0,41.0,-100.00,SE,135,2.0,15.0,48,-99.99,,,0.00,26.000000,,2013-05-16 03:46:00,
2013-05-15 20:56:00,61.0,41.0,-100.00,SE,135,2.0,15.0,48,-99.99,,,0.00,26.000000,,2013-05-16 03:56:00,
2013-05-15 21:02:00,61.0,41.0,-100.00,SE,135,2.0,15.0,48,-99.99,,,0.00,26.000000,,2013-05-16 04:02:00,
2013-05-15 21:23:00,58.0,42.0,-100.00,SSW,195,1.0,9.0,55,0.00,,,0.00,0.000000,,2013-05-16 04:23:00,
2013-05-15 21:33:00,58.0,42.0,-100.00,SSW,195,1.0,9.0,55,0.00,,,0.00,0.000000,,2013-05-16 04:33:00,
2013-05-15 21:42:00,58.0,42.0,-100.00,SSW,195,1.0,9.0,55,0.00,,,0.00,0.000000,,2013-05-16 04:42:00,
2013-05-15 21:53:00,58.0,42.0,-100.00,SSW,195,1.0,9.0,55,0.00,,,0.00,0.000000,,2013-05-16 04:53:00,
2013-05-15 22:02:00,58.0,42.0,-100.00,SSW,195,1.0,9.0,55,0.00,,,0.00,0.000000,,2013-05-16 05:02:00,
2013-05-15 22:32:00,55.0,43.0,-100.00,East,79,0.0,2.0,63,0.00,,,0.00,0.000000,,2013-05-16 05:32:00,
2013-05-15 22:42:00,55.0,43.0,-100.00,East,79,0.0,2.0,63,0.00,,,0.00,0.000000,,2013-05-16 05:42:00,
2013-05-15 22:52:00,55.0,43.0,-100.00,East,79,0.0,2.0,63,0.00,,,0.00,0.000000,,2013-05-16 05:52:00,
2013-05-15 23:01:00,55.0,43.0,-100.00,East,79,0.0,2.0,63,0.00,,,0.00,0.000000,,2013-05-16 06:01:00,
2013-05-15 23:23:00,52.0,42.0,-100.00,SW,231,1.0,2.0,68,0.00,,,-99.99,0.000000,,2013-05-16 06:23:00,
2013-05-15 23:33:00,52.0,42.0,-100.00,SW,231,1.0,2.0,68,0.00,,,-99.99,0.000000,,2013-05-16 06:33:00,
2013-05-15 23:43:00,52.0,42.0,-100.00,SW,231,1.0,2.0,68,0.00,,,-99.99,0.000000,,2013-05-16 06:43:00,
2013-05-15 23:53:00,52.0,42.0,-100.00,SW,231,1.0,2.0,68,0.00,,,-99.99,0.000000,,2013-05-16 06:53:00,